Time;durP1;ratioP1;P1;durP2;ratioP2;P2;SDS_P1;SDS_P2;PMS_P1;PMS_P2;Temp;Humidity;BMP_temperature;BMP_pressure;BME280_temperature;BME280_humidity;BME280_pressure;Samples;Min_cycle;Max_cycle;Signal;HPM_P1;HPM_P2
2021/04/17 00:01:56;;;;;;;5.40;4.90;;;;;;;0.98;68.53;96990.31;5094609;28;20048;-79
2021/04/17 00:04:25;;;;;;;6.13;5.53;;;;;;;0.96;68.71;96984.47;5094980;28;20036;-80
2021/04/17 00:06:51;;;;;;;6.57;6.00;;;;;;;0.94;68.60;96984.59;5094588;28;20432;-80
2021/04/17 00:09:21;;;;;;;7.60;6.90;;;;;;;0.92;68.75;96990.88;5095398;28;20400;-81
2021/04/17 00:11:49;;;;;;;7.20;6.35;;;;;;;0.90;68.86;96982.47;5094320;28;20044;-77
2021/04/17 00:14:31;;;;;;;6.95;6.13;;;;;;;0.88;70.65;96986.97;5095084;28;20468;-80
2021/04/17 00:16:57;;;;;;;6.68;6.00;;;;;;;0.87;69.01;96980.19;5093955;28;20464;-79
2021/04/17 00:19:24;;;;;;;6.72;6.05;;;;;;;0.86;69.24;96978.53;5076668;28;20051;-78
2021/04/17 00:21:50;;;;;;;6.68;6.07;;;;;;;0.87;69.23;96982.75;5076438;28;20503;-80
2021/04/17 00:24:16;;;;;;;6.45;5.85;;;;;;;0.86;69.25;96981.97;5094712;28;20476;-80
2021/04/17 00:26:42;;;;;;;6.88;6.22;;;;;;;0.86;69.35;96976.78;5059477;28;20040;-78
2021/04/17 00:29:09;;;;;;;6.78;6.18;;;;;;;0.88;69.49;96980.03;5094284;28;20047;-80
2021/04/17 00:31:37;;;;;;;6.45;5.85;;;;;;;0.88;69.56;96974.03;5093775;28;20047;-79
2021/04/17 00:34:03;;;;;;;6.75;6.15;;;;;;;0.89;69.60;96973.09;5094910;28;20407;-77
2021/04/17 00:36:30;;;;;;;7.05;6.38;;;;;;;0.89;69.78;96973.09;5093999;28;20032;-77
2021/04/17 00:38:56;;;;;;;7.30;6.68;;;;;;;0.89;69.60;96967.94;5094213;28;20040;-79
2021/04/17 00:41:23;;;;;;;6.35;5.75;;;;;;;0.91;69.57;96961.66;5076144;28;20032;-80
2021/04/17 00:43:50;;;;;;;7.05;6.40;;;;;;;0.90;69.66;96962.59;5059567;28;20044;-81
2021/04/17 00:46:17;;;;;;;6.82;6.10;;;;;;;0.91;69.77;96964.25;5075576;28;20039;-79
2021/04/17 00:48:44;;;;;;;7.20;6.50;;;;;;;0.92;69.78;96962.47;5075779;28;20047;-79
2021/04/17 00:51:10;;;;;;;7.03;6.30;;;;;;;0.92;69.78;96952.94;5093907;28;20036;-78
2021/04/17 00:53:37;;;;;;;7.20;6.07;;;;;;;0.94;69.74;96956.19;5094427;28;20389;-77
2021/04/17 00:56:06;;;;;;;6.55;5.80;;;;;;;0.94;69.72;96952.81;5093720;28;20052;-79
2021/04/17 00:58:33;;;;;;;6.35;5.75;;;;;;;0.95;69.73;96957.03;5093551;28;20491;-80
2021/04/17 01:01:00;;;;;;;6.40;5.47;;;;;;;0.95;69.62;96952.69;5093443;28;20052;-78
2021/04/17 01:03:52;;;;;;;6.78;6.18;;;;;;;0.94;69.62;96951.03;5093457;28;20370;-79
2021/04/17 01:06:24;;;;;;;6.20;5.60;;;;;;;0.91;69.70;96951.34;5093231;28;20487;-79
2021/04/17 01:09:01;;;;;;;5.60;5.10;;;;;;;0.92;69.85;96958.13;5093782;28;20036;-79
2021/04/17 01:11:35;;;;;;;6.70;6.10;;;;;;;0.91;69.84;96950.53;5093546;28;20043;-78
2021/04/17 01:14:02;;;;;;;6.90;6.30;;;;;;;0.89;69.76;96945.50;5093366;28;20036;-78
2021/04/17 01:16:30;;;;;;;6.55;5.95;;;;;;;0.88;69.62;96943.88;5093659;28;20054;-79
2021/04/17 01:18:57;;;;;;;8.27;6.70;;;;;;;0.87;69.70;96942.25;5075455;28;20044;-77
2021/04/17 01:21:24;;;;;;;6.55;5.93;;;;;;;0.86;69.56;96948.41;5093440;28;20040;-77
2021/04/17 01:24:02;;;;;;;9.30;6.35;;;;;;;0.85;69.83;96946.75;5093298;28;20040;-77
2021/04/17 01:26:30;;;;;;;7.53;6.72;;;;;;;0.85;69.67;96944.16;5093636;28;20043;-77
2021/04/17 01:28:58;;;;;;;8.10;7.28;;;;;;;0.84;69.56;96941.72;5093180;28;20036;-77
2021/04/17 01:31:30;;;;;;;7.60;6.80;;;;;;;0.81;70.01;96935.09;5092921;28;20464;-79
2021/04/17 01:33:58;;;;;;;7.53;6.80;;;;;;;0.81;69.86;96941.06;5087467;28;20032;-78
2021/04/17 01:36:27;;;;;;;6.88;6.28;;;;;;;0.79;69.90;96935.22;5065478;28;20051;-78
2021/04/17 01:39:04;;;;;;;7.38;6.68;;;;;;;0.76;69.86;96932.13;5093259;28;20106;-78
2021/04/17 01:41:43;;;;;;;10.32;7.00;;;;;;;0.74;70.24;96934.84;5093028;28;20048;-80
2021/04/17 01:44:18;;;;;;;7.38;6.65;;;;;;;0.70;70.17;96930.94;5093164;28;20051;-78
2021/04/17 01:46:48;;;;;;;8.85;7.47;;;;;;;0.71;69.80;96929.16;5092588;28;20042;-79
2021/04/17 01:49:16;;;;;;;7.43;6.80;;;;;;;0.71;69.85;96924.81;5079817;28;20036;-79
2021/04/17 01:51:45;;;;;;;7.72;6.93;;;;;;;0.72;69.91;96929.03;5093054;28;20043;-79
2021/04/17 01:54:20;;;;;;;8.32;7.07;;;;;;;0.72;70.10;96920.47;5092864;28;20024;-78
2021/04/17 01:56:48;;;;;;;9.05;7.47;;;;;;;0.73;69.98;96920.31;5084843;28;20063;-78
2021/04/17 01:59:17;;;;;;;8.50;7.70;;;;;;;0.72;70.06;96926.44;5092681;28;20041;-79
2021/04/17 02:01:44;;;;;;;8.05;7.32;;;;;;;0.70;69.96;96930.13;5093247;28;20399;-79
2021/04/17 02:04:10;;;;;;;7.35;6.75;;;;;;;0.70;69.88;96925.78;5092945;28;20404;-80
2021/04/17 02:06:36;;;;;;;8.40;7.50;;;;;;;0.69;70.14;96920.75;5092886;28;20040;-79
2021/04/17 02:09:03;;;;;;;7.57;6.88;;;;;;;0.68;70.01;96924.28;5075000;28;20044;-79
2021/04/17 02:11:30;;;;;;;8.00;7.28;;;;;;;0.66;69.92;96918.47;5092189;28;20039;-80
2021/04/17 02:13:58;;;;;;;8.95;7.70;;;;;;;0.65;70.10;96927.16;5093257;28;20101;-79
2021/04/17 02:16:35;;;;;;;8.95;8.00;;;;;;;0.62;70.30;96919.72;5092377;28;20028;-79
2021/04/17 02:19:07;;;;;;;8.05;7.28;;;;;;;0.62;70.28;96930.03;5091737;28;20039;-78
2021/04/17 02:21:39;;;;;;;8.27;7.57;;;;;;;0.58;70.36;96917.41;5096874;28;20039;-78
2021/04/17 02:24:07;;;;;;;9.50;8.60;;;;;;;0.60;70.36;96922.44;5097011;28;20028;-80
2021/04/17 02:26:33;;;;;;;9.20;8.30;;;;;;;0.60;70.41;96914.69;5096171;28;20501;-80
2021/04/17 02:29:00;;;;;;;10.57;9.55;;;;;;;0.60;70.47;96918.06;5112467;28;20488;-78
2021/04/17 02:31:28;;;;;;;9.43;8.55;;;;;;;0.60;70.65;96914.69;5096172;28;20032;-79
2021/04/17 02:33:55;;;;;;;10.40;9.23;;;;;;;0.60;70.56;96912.91;5096395;28;20048;-79
2021/04/17 02:36:22;;;;;;;9.15;8.30;;;;;;;0.58;70.80;96917.41;5078859;28;20036;-78
2021/04/17 02:38:48;;;;;;;9.02;8.23;;;;;;;0.59;70.76;96913.88;5096365;28;20032;-78
2021/04/17 02:41:15;;;;;;;8.77;7.75;;;;;;;0.63;70.73;96921.31;5096410;28;20036;-78
2021/04/17 02:43:42;;;;;;;8.63;7.72;;;;;;;0.61;70.72;96916.31;5096279;28;20047;-78
2021/04/17 02:46:09;;;;;;;9.55;8.30;;;;;;;0.59;70.59;96918.22;5096665;28;20491;-79
2021/04/17 02:48:35;;;;;;;9.13;8.15;;;;;;;0.52;70.73;96917.97;5078041;28;20047;-79
2021/04/17 02:51:02;;;;;;;10.65;9.55;;;;;;;0.49;70.77;96918.25;5096438;28;20047;-78
2021/04/17 02:53:29;;;;;;;9.82;8.82;;;;;;;0.46;70.99;96917.72;5077936;28;20047;-76
2021/04/17 02:55:55;;;;;;;12.65;11.00;;;;;;;0.43;71.25;96912.88;5095911;28;20036;-76
2021/04/17 02:58:22;;;;;;;10.98;9.88;;;;;;;0.40;71.37;96916.56;5096042;28;20055;-77
2021/04/17 03:00:49;;;;;;;11.35;10.15;;;;;;;0.38;71.60;96915.88;5096198;28;20051;-77
2021/04/17 03:03:16;;;;;;;11.45;10.35;;;;;;;0.35;72.01;96911.78;5095817;28;20047;-76
2021/04/17 03:05:42;;;;;;;11.63;10.43;;;;;;;0.33;72.31;96912.91;5078044;28;20468;-77
2021/04/17 03:08:10;;;;;;;11.75;10.55;;;;;;;0.31;72.27;96909.66;5095619;28;20040;-77
2021/04/17 03:10:37;;;;;;;12.52;11.32;;;;;;;0.30;72.32;96911.41;5095944;28;20441;-78
2021/04/17 03:13:07;;;;;;;12.98;11.27;;;;;;;0.28;72.85;96910.75;5095584;28;20055;-78
2021/04/17 03:15:34;;;;;;;11.15;10.02;;;;;;;0.27;72.39;96906.53;5077789;28;20028;-77
2021/04/17 03:18:00;;;;;;;12.18;10.88;;;;;;;0.26;72.37;96910.06;5095246;28;20043;-77
2021/04/17 03:20:28;;;;;;;12.30;10.95;;;;;;;0.26;72.62;96902.34;5095874;28;20399;-77
2021/04/17 03:22:54;;;;;;;11.90;10.70;;;;;;;0.25;72.80;96900.69;5095342;28;20036;-77
2021/04/17 03:25:20;;;;;;;13.85;11.80;;;;;;;0.24;72.87;96893.13;5077864;28;20040;-78
2021/04/17 03:27:47;;;;;;;12.00;10.80;;;;;;;0.25;73.15;96902.47;5095352;28;20059;-78
2021/04/17 03:30:16;;;;;;;13.02;11.35;;;;;;;0.25;73.21;96905.06;5095387;28;20040;-76
2021/04/17 03:32:43;;;;;;;13.75;11.82;;;;;;;0.25;73.28;96907.63;5095180;28;20043;-77
2021/04/17 03:35:12;;;;;;;12.50;11.13;;;;;;;0.24;73.42;96899.09;5095573;28;20036;-77
2021/04/17 03:37:40;;;;;;;11.95;10.75;;;;;;;0.23;73.44;96904.38;5095243;28;20040;-77
2021/04/17 03:40:08;;;;;;;12.50;11.30;;;;;;;0.23;73.62;96900.03;5095506;28;20036;-77
2021/04/17 03:42:35;;;;;;;13.38;12.02;;;;;;;0.25;73.45;96908.44;5094980;28;20044;-78
2021/04/17 03:45:02;;;;;;;12.52;11.23;;;;;;;0.23;73.37;96901.81;5095750;28;20040;-78
2021/04/17 03:47:28;;;;;;;14.02;11.85;;;;;;;0.23;73.44;96896.66;5077067;28;20051;-79
2021/04/17 03:49:54;;;;;;;12.65;11.38;;;;;;;0.21;73.72;96904.53;5094909;28;20498;-78
2021/04/17 03:52:21;;;;;;;13.73;12.15;;;;;;;0.20;73.62;96893.41;5076708;28;20384;-79
2021/04/17 03:54:47;;;;;;;14.02;11.73;;;;;;;0.22;73.79;96905.34;5095296;28;20047;-77
2021/04/17 03:57:13;;;;;;;13.48;12.18;;;;;;;0.20;73.94;96908.06;5095401;28;20063;-78
2021/04/17 03:59:39;;;;;;;12.80;11.50;;;;;;;0.16;74.02;96904.13;5077156;28;20047;-79
2021/04/17 04:02:05;;;;;;;15.27;12.73;;;;;;;0.16;74.17;96909.28;5094252;28;20388;-79
2021/04/17 04:04:31;;;;;;;12.77;11.43;;;;;;;0.16;74.15;96906.72;5077488;28;20040;-78
2021/04/17 04:06:58;;;;;;;12.70;11.40;;;;;;;0.15;74.15;96911.06;5076793;28;20036;-78
2021/04/17 04:09:24;;;;;;;12.38;11.18;;;;;;;0.17;74.13;96919.47;5077268;28;20377;-78
2021/04/17 04:11:50;;;;;;;13.45;12.05;;;;;;;0.18;74.13;96917.72;5076192;28;20043;-78
2021/04/17 04:14:16;;;;;;;14.15;12.30;;;;;;;0.17;74.15;96919.47;5094705;28;20047;-79
2021/04/17 04:16:42;;;;;;;12.23;11.00;;;;;;;0.17;74.26;96921.25;5094175;28;20043;-79
2021/04/17 04:19:08;;;;;;;11.63;10.43;;;;;;;0.18;74.15;96915.13;5076593;28;20509;-78
2021/04/17 04:21:34;;;;;;;13.00;11.70;;;;;;;0.21;74.50;96920.03;5076367;28;20036;-79
2021/04/17 04:24:00;;;;;;;13.60;12.20;;;;;;;0.19;74.38;96925.31;5094675;28;20047;-79
2021/04/17 04:26:27;;;;;;;12.50;11.27;;;;;;;0.16;74.59;96923.00;5094370;28;20043;-79
2021/04/17 04:28:53;;;;;;;14.30;12.85;;;;;;;0.18;74.70;96922.88;5094371;28;20056;-79
2021/04/17 04:31:19;;;;;;;13.93;12.38;;;;;;;0.17;74.86;96922.06;5076172;28;20428;-79
2021/04/17 04:33:45;;;;;;;13.68;12.25;;;;;;;0.20;75.00;96920.97;5059412;28;20054;-79
2021/04/17 04:36:11;;;;;;;12.85;11.55;;;;;;;0.23;75.03;96925.00;5094540;28;20036;-79
2021/04/17 04:38:37;;;;;;;13.45;11.82;;;;;;;0.24;75.06;96917.16;5076524;28;20040;-80
2021/04/17 04:41:04;;;;;;;13.57;12.15;;;;;;;0.29;74.93;96927.03;5087690;28;20392;-79
2021/04/17 04:43:30;;;;;;;13.65;12.25;;;;;;;0.32;74.79;96919.84;5093889;28;20094;-79
2021/04/17 04:45:56;;;;;;;13.25;11.95;;;;;;;0.35;74.63;96924.69;5075933;28;20047;-77
2021/04/17 04:48:22;;;;;;;12.15;10.95;;;;;;;0.38;74.56;96933.94;5075737;28;20055;-77
2021/04/17 04:50:49;;;;;;;12.77;11.57;;;;;;;0.38;74.35;96939.09;5094119;28;20044;-78
2021/04/17 04:53:15;;;;;;;12.50;11.00;;;;;;;0.37;74.56;96932.31;5094211;28;20396;-77
2021/04/17 04:55:41;;;;;;;12.75;11.38;;;;;;;0.39;74.08;96945.88;5093533;28;20044;-78
2021/04/17 04:58:07;;;;;;;11.90;10.27;;;;;;;0.41;74.39;96931.06;5092895;28;20044;-78
2021/04/17 05:00:33;;;;;;;12.88;11.52;;;;;;;0.43;74.42;96941.25;5093692;28;20047;-78
2021/04/17 05:02:59;;;;;;;12.23;11.02;;;;;;;0.48;74.29;96949.38;5058931;28;20468;-77
2021/04/17 05:05:25;;;;;;;12.38;11.15;;;;;;;0.49;74.39;96946.66;5093910;28;20036;-77
2021/04/17 05:07:52;;;;;;;12.50;11.30;;;;;;;0.52;74.32;96937.81;5076007;28;20040;-78
2021/04/17 05:10:18;;;;;;;11.85;10.73;;;;;;;0.54;74.37;96935.91;5093558;28;20403;-78
2021/04/17 05:12:44;;;;;;;12.60;11.27;;;;;;;0.56;74.33;96945.13;5093373;28;20051;-79
2021/04/17 05:15:10;;;;;;;12.90;11.60;;;;;;;0.57;74.29;96933.84;5093397;28;20035;-78
2021/04/17 05:17:37;;;;;;;12.55;11.35;;;;;;;0.59;74.38;96944.03;5093455;28;20036;-78
2021/04/17 05:20:04;;;;;;;13.02;11.70;;;;;;;0.59;74.36;96939.69;5093221;28;20040;-78
2021/04/17 05:22:30;;;;;;;12.55;11.30;;;;;;;0.62;74.31;96936.00;5058641;28;20040;-78
2021/04/17 05:24:57;;;;;;;13.10;11.65;;;;;;;0.65;74.41;96942.63;5093222;28;20464;-78
2021/04/17 05:27:23;;;;;;;13.00;11.70;;;;;;;0.68;74.39;96940.59;5093825;28;20036;-78
2021/04/17 05:29:49;;;;;;;13.85;12.45;;;;;;;0.73;74.45;96942.72;5093806;28;20040;-78
2021/04/17 05:32:15;;;;;;;13.45;12.15;;;;;;;0.78;74.39;96938.78;5092932;28;20427;-78
2021/04/17 05:34:41;;;;;;;13.15;11.73;;;;;;;0.84;74.54;96936.56;5075319;28;20043;-78
2021/04/17 05:37:07;;;;;;;13.85;11.90;;;;;;;0.88;74.42;96937.91;5093155;28;20400;-78
2021/04/17 05:39:34;;;;;;;12.18;10.98;;;;;;;0.96;74.46;96945.75;5058572;28;20404;-78
2021/04/17 05:42:00;;;;;;;13.02;11.63;;;;;;;1.02;74.52;96943.38;5092488;28;20532;-78
2021/04/17 05:44:26;;;;;;;12.48;11.15;;;;;;;1.10;74.31;96949.59;5074959;28;20043;-78
2021/04/17 05:46:53;;;;;;;13.05;11.70;;;;;;;1.15;74.28;96949.97;5074605;28;20373;-78
2021/04/17 05:49:19;;;;;;;15.40;13.88;;;;;;;1.15;74.27;96947.38;5075393;28;20043;-78
2021/04/17 05:51:45;;;;;;;13.52;12.18;;;;;;;1.16;73.84;96952.41;5071129;28;20040;-78
2021/04/17 05:54:14;;;;;;;13.68;12.40;;;;;;;1.18;74.13;96957.44;5092964;28;20044;-78
2021/04/17 05:56:40;;;;;;;16.30;13.82;;;;;;;1.18;73.95;96955.66;5092542;28;20056;-78
2021/04/17 05:59:06;;;;;;;13.00;11.73;;;;;;;1.19;74.02;96961.63;5092686;28;20051;-78
2021/04/17 06:01:33;;;;;;;12.27;11.07;;;;;;;1.21;73.94;96950.19;5092752;28;20048;-78
2021/04/17 06:03:59;;;;;;;13.23;11.25;;;;;;;1.26;74.01;96954.94;5074842;28;20098;-78
2021/04/17 06:06:25;;;;;;;13.20;11.80;;;;;;;1.25;73.90;96966.22;5092564;28;20057;-78
2021/04/17 06:08:51;;;;;;;12.35;10.98;;;;;;;1.26;73.70;96960.09;5092846;28;20047;-78
2021/04/17 06:11:18;;;;;;;12.05;10.85;;;;;;;1.29;73.94;96957.22;5092821;28;20366;-79
2021/04/17 06:13:44;;;;;;;13.50;12.07;;;;;;;1.31;73.97;96957.88;5092756;28;20032;-78
2021/04/17 06:16:10;;;;;;;14.02;12.57;;;;;;;1.37;74.12;96961.66;5092616;28;20036;-78
2021/04/17 06:18:36;;;;;;;14.20;12.45;;;;;;;1.40;73.92;96964.75;5092657;28;20035;-78
2021/04/17 06:21:05;;;;;;;14.88;12.45;;;;;;;1.45;73.99;96966.06;5074617;28;20047;-78
2021/04/17 06:23:32;;;;;;;13.15;11.77;;;;;;;1.51;73.90;96965.50;5092775;28;20032;-78
2021/04/17 06:25:58;;;;;;;14.13;12.73;;;;;;;1.57;74.27;96968.28;5092573;28;20044;-79
2021/04/17 06:28:25;;;;;;;15.82;14.15;;;;;;;1.64;74.56;96976.28;5092143;28;20036;-78
2021/04/17 06:30:51;;;;;;;14.25;12.85;;;;;;;1.70;74.90;96967.94;5092518;28;20433;-78
2021/04/17 06:33:18;;;;;;;15.07;13.68;;;;;;;1.76;74.85;96966.50;5092023;28;20396;-78
2021/04/17 06:35:44;;;;;;;14.98;13.52;;;;;;;1.81;74.78;96965.09;5074902;28;20458;-78
2021/04/17 06:38:13;;;;;;;15.32;13.82;;;;;;;1.89;74.84;96963.53;5074626;28;20037;-79
2021/04/17 06:40:39;;;;;;;15.82;13.43;;;;;;;1.98;74.97;96962.66;5085563;28;20051;-78
2021/04/17 06:43:06;;;;;;;15.40;13.82;;;;;;;2.10;74.90;96958.03;5092178;28;20047;-78
2021/04/17 06:45:35;;;;;;;15.23;13.82;;;;;;;2.22;74.91;96960.19;5093110;28;20036;-78
2021/04/17 06:48:07;;;;;;;15.32;13.82;;;;;;;2.32;74.81;96954.94;5074318;28;20055;-79
2021/04/17 06:50:34;;;;;;;15.57;13.43;;;;;;;2.42;74.53;96950.47;5092195;28;20035;-79
2021/04/17 06:53:07;;;;;;;15.18;13.57;;;;;;;2.53;74.57;96954.56;5063650;28;20040;-78
2021/04/17 06:55:34;;;;;;;14.82;13.43;;;;;;;2.64;74.68;96948.28;5092357;28;20472;-79
2021/04/17 06:58:01;;;;;;;15.05;13.30;;;;;;;2.74;74.26;96950.78;5092525;28;20411;-79
2021/04/17 07:00:28;;;;;;;14.77;13.30;;;;;;;2.84;74.25;96943.69;5074380;28;20043;-79
2021/04/17 07:02:54;;;;;;;14.13;12.75;;;;;;;2.98;74.14;96944.84;5091629;28;20080;-80
2021/04/17 07:05:20;;;;;;;13.73;12.35;;;;;;;3.09;73.81;96943.75;5094694;28;20036;-79
2021/04/17 07:07:47;;;;;;;16.23;13.13;;;;;;;3.20;73.79;96948.66;5097130;28;20067;-78
2021/04/17 07:10:14;;;;;;;14.40;12.90;;;;;;;3.29;73.49;96945.09;5095450;28;20036;-79
2021/04/17 07:12:44;;;;;;;14.38;12.95;;;;;;;3.40;73.52;96943.97;5060181;28;20040;-79
2021/04/17 07:15:12;;;;;;;13.60;12.20;;;;;;;3.51;73.36;96942.84;5095199;28;20039;-78
2021/04/17 07:17:39;;;;;;;14.55;13.10;;;;;;;3.60;73.05;96950.47;5095849;28;20055;-78
2021/04/17 07:20:07;;;;;;;14.40;12.90;;;;;;;3.66;73.06;96944.63;5093309;28;20032;-79
2021/04/17 07:22:38;;;;;;;15.77;14.15;;;;;;;3.73;72.71;96946.59;5092223;28;20036;-79
2021/04/17 07:25:04;;;;;;;16.30;13.90;;;;;;;3.90;72.54;96952.59;5093268;28;20031;-78
2021/04/17 07:27:35;;;;;;;15.25;13.75;;;;;;;4.11;72.66;96946.88;5096137;28;20041;-78
2021/04/17 07:30:17;;;;;;;14.32;12.82;;;;;;;4.47;72.02;96937.72;5095786;28;20385;-78
2021/04/17 07:32:43;;;;;;;12.90;11.70;;;;;;;5.02;72.37;96938.66;5095884;28;20040;-78
2021/04/17 07:35:14;;;;;;;16.60;15.00;;;;;;;5.64;71.75;96942.16;5096290;28;20032;-78
2021/04/17 07:37:43;;;;;;;14.40;12.98;;;;;;;5.88;70.00;96935.97;5095752;28;20393;-78
2021/04/17 07:40:15;;;;;;;13.05;11.75;;;;;;;5.93;68.79;96938.81;5095695;28;20038;-78
2021/04/17 07:42:43;;;;;;;12.93;11.73;;;;;;;6.32;69.47;96943.06;5095541;28;20032;-78
2021/04/17 07:45:35;;;;;;;12.48;11.27;;;;;;;6.74;65.84;96927.75;5095591;28;20048;-78
2021/04/17 07:48:29;;;;;;;12.35;11.07;;;;;;;7.29;63.18;96915.97;5095425;28;20043;-78
2021/04/17 07:50:56;;;;;;;11.57;10.50;;;;;;;7.58;67.05;96930.72;5095438;28;20016;-78
2021/04/17 07:53:36;;;;;;;12.25;11.15;;;;;;;7.73;65.55;96931.44;5077126;28;20040;-78
2021/04/17 07:56:22;;;;;;;12.63;10.80;;;;;;;8.00;60.76;96904.72;5095076;28;20496;-78
2021/04/17 07:58:51;;;;;;;13.02;11.85;;;;;;;8.10;65.23;96929.50;5095027;28;20036;-78
2021/04/17 08:01:18;;;;;;;13.63;12.43;;;;;;;8.01;65.05;96938.50;5095161;28;20036;-78
2021/04/17 08:04:03;;;;;;;12.30;11.10;;;;;;;7.95;64.79;96935.84;5081926;28;20047;-78
2021/04/17 08:06:30;;;;;;;12.77;11.57;;;;;;;7.91;64.30;96928.38;5094552;28;20044;-78
2021/04/17 08:08:58;;;;;;;12.77;11.57;;;;;;;7.79;63.45;96935.13;5094852;28;20040;-78
2021/04/17 08:11:28;;;;;;;18.38;16.48;;;;;;;7.59;62.64;96931.50;5094927;28;20032;-78
2021/04/17 08:14:14;;;;;;;12.18;10.98;;;;;;;7.53;63.79;96927.84;5079454;28;20040;-79
2021/04/17 08:16:41;;;;;;;11.32;10.32;;;;;;;7.65;63.66;96915.91;5095530;28;20385;-78
2021/04/17 08:19:11;;;;;;;11.48;10.48;;;;;;;7.78;63.41;96920.44;5094577;28;20054;-79
2021/04/17 08:21:38;;;;;;;10.77;9.77;;;;;;;7.83;63.04;96923.31;5094667;28;20043;-79
2021/04/17 08:24:05;;;;;;;11.90;10.80;;;;;;;7.76;62.62;96917.19;5094890;28;20036;-79
2021/04/17 08:26:33;;;;;;;12.05;10.95;;;;;;;7.72;62.67;96921.19;5076593;28;20043;-79
2021/04/17 08:29:01;;;;;;;10.85;9.90;;;;;;;7.61;61.85;96909.44;5095202;28;20503;-78
2021/04/17 08:31:33;;;;;;;10.60;9.65;;;;;;;7.55;61.80;96904.97;5094583;28;20051;-79
2021/04/17 08:34:25;;;;;;;10.50;9.55;;;;;;;7.51;59.50;96894.09;5094663;28;20040;-78
2021/04/17 08:37:02;;;;;;;11.43;10.20;;;;;;;7.57;61.78;96908.19;5089910;28;20043;-78
2021/04/17 08:39:34;;;;;;;12.85;11.73;;;;;;;7.50;59.41;96897.72;5079603;28;20028;-79
2021/04/17 08:42:08;;;;;;;13.38;12.18;;;;;;;7.39;61.19;96908.66;5076640;28;20479;-78
2021/04/17 08:44:40;;;;;;;11.95;10.50;;;;;;;7.40;60.16;96893.81;5076214;28;20039;-78
2021/04/17 08:47:10;;;;;;;11.93;10.75;;;;;;;7.46;60.64;96890.44;5094296;28;20036;-78
2021/04/17 08:49:39;;;;;;;9.75;8.75;;;;;;;7.47;60.22;96894.66;5093997;28;20052;-79
2021/04/17 08:52:22;;;;;;;10.30;9.20;;;;;;;7.43;57.89;96875.16;5094197;28;20028;-78
2021/04/17 08:54:53;;;;;;;9.98;9.00;;;;;;;7.27;57.34;96871.00;5081054;28;20047;-78
2021/04/17 08:57:21;;;;;;;9.55;8.65;;;;;;;7.15;59.42;96890.75;5093814;28;20408;-78
2021/04/17 08:59:59;;;;;;;10.02;9.13;;;;;;;7.26;58.28;96877.19;5075998;28;20416;-78
2021/04/17 09:02:27;;;;;;;9.27;8.38;;;;;;;7.86;60.09;96890.78;5093991;28;20040;-78
2021/04/17 09:05:19;;;;;;;8.48;7.78;;;;;;;8.44;57.15;96859.19;5093995;28;20041;-78
2021/04/17 09:07:47;;;;;;;8.68;7.88;;;;;;;8.46;58.11;96862.41;5094104;28;20040;-78
2021/04/17 09:10:22;;;;;;;8.18;7.45;;;;;;;8.32;56.03;96851.09;5093840;28;20515;-78
2021/04/17 09:13:14;;;;;;;8.15;7.45;;;;;;;8.24;54.26;96828.53;5094186;28;20042;-78
2021/04/17 09:15:50;;;;;;;7.68;7.03;;;;;;;8.35;55.91;96842.84;5093823;28;20039;-78
2021/04/17 09:18:32;;;;;;;7.25;6.53;;;;;;;8.90;53.32;96816.72;5093795;28;20032;-78
2021/04/17 09:21:04;;;;;;;7.65;6.95;;;;;;;9.18;53.92;96834.91;5075406;28;20043;-78
2021/04/17 09:23:42;;;;;;;7.18;6.47;;;;;;;9.14;53.27;96816.16;5093626;28;20361;-79
2021/04/17 09:26:29;;;;;;;7.30;6.60;;;;;;;9.04;53.29;96810.53;5092394;28;20039;-78
2021/04/17 09:29:23;;;;;;;6.97;5.90;;;;;;;8.89;54.60;96825.59;5108910;27;20402;-78
2021/04/17 09:31:53;;;;;;;6.95;6.30;;;;;;;8.74;54.39;96818.69;5073089;28;20055;-78
2021/04/17 09:34:20;;;;;;;6.88;6.18;;;;;;;8.70;54.22;96814.06;5090643;28;20044;-78
2021/04/17 09:36:51;;;;;;;6.60;6.00;;;;;;;8.68;54.14;96816.06;5090485;28;20040;-78
2021/04/17 09:39:22;;;;;;;5.60;5.00;;;;;;;8.56;52.04;96792.28;5090541;28;20048;-78
2021/04/17 09:41:50;;;;;;;4.50;4.15;;;;;;;8.55;53.12;96790.69;5090437;28;20032;-78
2021/04/17 09:44:19;;;;;;;3.72;3.35;;;;;;;8.54;52.78;96783.84;5090594;28;20036;-78
2021/04/17 09:46:47;;;;;;;3.78;3.40;;;;;;;8.65;52.36;96777.22;5090228;28;20487;-78
2021/04/17 09:49:35;;;;;;;3.53;3.22;;;;;;;8.81;47.01;96721.97;5089982;28;20037;-78
2021/04/17 09:52:01;;;;;;;3.15;2.85;;;;;;;8.98;51.12;96760.81;5090101;28;20043;-78
2021/04/17 09:54:28;;;;;;;3.15;2.85;;;;;;;9.21;50.91;96763.03;5090025;28;20041;-78
2021/04/17 09:56:55;;;;;;;3.13;2.92;;;;;;;9.41;49.93;96742.09;5090054;28;20036;-78
2021/04/17 09:59:21;;;;;;;2.90;2.58;;;;;;;9.46;49.49;96732.63;5090251;28;20059;-77
2021/04/17 10:01:55;;;;;;;2.72;2.53;;;;;;;9.62;45.81;96704.41;5071823;28;20040;-77
2021/04/17 10:04:22;;;;;;;2.85;2.65;;;;;;;9.59;47.89;96720.53;5071874;28;20044;-78
2021/04/17 10:06:59;;;;;;;3.80;2.63;;;;;;;9.75;44.92;96699.13;5071915;28;20047;-77
2021/04/17 10:09:25;;;;;;;3.17;2.70;;;;;;;10.25;47.26;96735.25;5089751;28;20404;-75
2021/04/17 10:12:04;;;;;;;5.22;3.67;;;;;;;10.96;48.35;96739.50;5089817;28;20043;-75
2021/04/17 10:14:30;;;;;;;2.88;2.65;;;;;;;11.70;46.32;96713.44;5080975;28;20028;-75
2021/04/17 10:16:57;;;;;;;3.03;2.72;;;;;;;11.85;44.24;96810.31;5089616;28;20384;-76
2021/04/17 10:19:23;;;;;;;3.17;2.90;;;;;;;11.47;42.59;96817.28;5089688;28;20404;-79
2021/04/17 10:22:00;;;;;;;3.65;3.35;;;;;;;10.98;39.53;96808.31;5089739;28;20040;-79
2021/04/17 10:24:32;;;;;;;3.38;3.08;;;;;;;10.47;41.92;96815.22;5088408;28;20052;-79
2021/04/17 10:27:09;;;;;;;4.20;3.78;;;;;;;10.07;42.61;96812.69;5087179;28;20044;-80
2021/04/17 10:29:47;;;;;;;3.47;3.17;;;;;;;9.74;42.98;96818.81;5069086;28;20048;-79
2021/04/17 10:32:22;;;;;;;3.75;3.30;;;;;;;9.53;43.53;96819.84;5051366;28;20033;-79
2021/04/17 10:35:03;;;;;;;3.78;3.30;;;;;;;9.41;43.40;96823.22;5069008;28;20366;-79
2021/04/17 10:37:43;;;;;;;4.28;3.10;;;;;;;9.35;43.64;96828.28;5051726;28;20036;-79
2021/04/17 10:40:20;;;;;;;3.55;3.25;;;;;;;9.39;43.50;96818.22;5044352;28;20040;-78
2021/04/17 10:42:55;;;;;;;3.53;3.20;;;;;;;9.51;43.60;96818.41;5055919;28;20033;-79
2021/04/17 10:45:38;;;;;;;3.60;3.30;;;;;;;9.60;43.00;96805.94;5056054;28;20374;-79
2021/04/17 10:48:15;;;;;;;3.42;3.13;;;;;;;9.60;43.47;96814.59;5055877;28;20028;-79
2021/04/17 10:50:44;;;;;;;3.10;2.85;;;;;;;9.64;43.72;96809.72;5054894;28;20056;-79
2021/04/17 10:53:14;;;;;;;4.40;3.35;;;;;;;9.69;43.39;96812.56;5055839;28;20032;-80
2021/04/17 10:55:46;;;;;;;3.67;3.38;;;;;;;9.72;42.89;96788.56;5056137;28;20033;-80
2021/04/17 10:58:39;;;;;;;3.67;3.38;;;;;;;9.78;42.20;96785.16;5055667;28;20041;-79
2021/04/17 11:01:11;;;;;;;3.72;3.42;;;;;;;9.63;42.30;96795.84;5050764;28;20072;-80
2021/04/17 11:03:49;;;;;;;3.53;3.22;;;;;;;9.57;42.59;96788.78;5054589;28;20041;-79
2021/04/17 11:06:26;;;;;;;4.50;3.60;;;;;;;9.65;43.14;96796.44;5054732;28;20045;-79
2021/04/17 11:09:14;;;;;;;3.40;3.10;;;;;;;9.74;39.84;96771.69;5045082;28;20048;-79
2021/04/17 11:11:57;;;;;;;4.00;3.10;;;;;;;9.70;42.09;96788.81;5054388;28;20040;-79
2021/04/17 11:14:26;;;;;;;3.65;3.35;;;;;;;9.74;42.50;96781.31;5037231;28;20519;-79
2021/04/17 11:16:54;;;;;;;3.58;3.08;;;;;;;9.87;42.42;96773.47;5020878;28;20044;-79
2021/04/17 11:19:35;;;;;;;4.10;3.08;;;;;;;9.94;41.46;96771.63;5055128;28;20481;-79
2021/04/17 11:22:06;;;;;;;4.05;2.83;;;;;;;10.10;41.73;96767.75;5021200;28;20043;-79
2021/04/17 11:24:32;;;;;;;3.25;3.05;;;;;;;10.28;42.01;96768.91;5054278;28;20032;-79
2021/04/17 11:26:58;;;;;;;3.53;2.88;;;;;;;10.33;41.83;96769.91;5053816;28;20393;-80
2021/04/17 11:29:25;;;;;;;3.22;2.92;;;;;;;10.39;41.63;96762.22;5055079;28;20049;-79
2021/04/17 11:31:51;;;;;;;3.33;3.05;;;;;;;10.49;41.44;96762.59;5053937;28;20045;-79
2021/04/17 11:34:17;;;;;;;2.97;2.75;;;;;;;10.61;41.17;96766.16;5054573;28;20045;-79
2021/04/17 11:36:44;;;;;;;3.25;2.95;;;;;;;10.80;41.18;96764.44;5054584;28;20033;-79
2021/04/17 11:39:12;;;;;;;3.45;3.15;;;;;;;10.87;40.90;96753.91;5037385;28;20135;-79
2021/04/17 11:41:38;;;;;;;2.70;2.42;;;;;;;10.88;40.19;96761.56;5054609;28;20028;-78
2021/04/17 11:44:05;;;;;;;2.72;2.38;;;;;;;10.79;39.92;96764.63;5054620;28;20029;-79